Madison, SD

10:58 AM CDT on August 17, 2017 (GMT -0500)
Madison Municipal

Weather History for KMDS - February, 2014

Change the Weather History Date:

Tuesday, February 11, 2014

  Actual Average Record
Temperature  
Mean Temperature 9 °F -  
Max Temperature 23 °F 24 °F 44 °F (2017)
Min Temperature -5 °F 6 °F -5 °F (2014)
Degree Days  
Heating Degree Days 56    
Moisture  
Dew Point 11 °F    
Average Humidity 95    
Maximum Humidity 100    
Minimum Humidity 78    
Precipitation  
Precipitation 0.00 in - - ()
Sea Level Pressure  
Sea Level Pressure 30.05 in    
Wind  
Wind Speed 15 mph (South)    
Max Wind Speed 30 mph    
Max Gust Speed 37 mph    
Visibility 10 miles    
Events      
Averages and records for this station are not official NWS values.
T = Trace of Precipitation, MM = Missing Value Source: NWS Daily Summary

Daily Weather History Graph

Daily Weather History Graph

Search for Another Location

Airport or City:

Trip Planner

Search our weather history database for the weather conditions in past years. The results will help you decide how hot, cold, wet, or windy it might be!

Date:

Astronomy

Feb. 11, 2014 Rise Set
Actual Time 7:33 AM CST 5:52 PM CST
Civil Twilight 7:03 AM CST 6:22 PM CST
Nautical Twilight 6:29 AM CST 6:56 PM CST
Astronomical Twilight 5:55 AM CST 7:30 PM CST
Moon 3:11 PM CST (2/11) 5:13 AM CST (2/11)
Length of Visible Light 11h 19m
Length of Day
10h 19m
Waxing Gibbous, 91% of the Moon is Illuminated
Feb 11
Waxing Gibbous
Feb 14
Full
Feb 22
Last Quarter
Mar 1
New
Mar 8
First Quarter

Hourly Weather History & Observations

Time (CST) Temp. Windchill Dew Point Humidity Pressure Visibility Wind Dir Wind Speed Gust Speed Precip Events Conditions
12:05 AM -4.0 °F - -9.4 °F 78% 30.33 in 10.0 mi North - - N/A   Overcast
12:25 AM -4.0 °F - -9.4 °F 78% 30.32 in 10.0 mi North - - N/A   Overcast
12:45 AM -5.8 °F -21.2 °F -9.4 °F 84% 30.31 in 10.0 mi SSE 8.1 mph - N/A   Overcast
1:05 AM -5.8 °F -21.2 °F -9.4 °F 84% 30.30 in 10.0 mi SSE 8.1 mph - N/A   Overcast
1:25 AM -5.8 °F -19.9 °F -9.4 °F 84% 30.31 in 10.0 mi SSE 6.9 mph - N/A   Overcast
1:45 AM -4.0 °F -17.8 °F -9.4 °F 78% 30.30 in 10.0 mi South 6.9 mph - N/A   Overcast
2:05 AM -4.0 °F -19.0 °F -9.4 °F 78% 30.29 in 10.0 mi South 8.1 mph - N/A   Overcast
2:25 AM -4.0 °F -17.8 °F -7.6 °F 85% 30.28 in 10.0 mi SSE 6.9 mph - N/A   Overcast
2:45 AM -4.0 °F -20.2 °F -7.6 °F 85% 30.28 in 10.0 mi South 9.2 mph - N/A   Overcast
3:05 AM -2.2 °F -18.0 °F -7.6 °F 78% 30.27 in 10.0 mi South 9.2 mph - N/A   Overcast
3:25 AM -2.2 °F -18.0 °F -4.0 °F 92% 30.26 in 10.0 mi South 9.2 mph - N/A   Overcast
3:45 AM -0.4 °F - -4.0 °F 85% 30.25 in 10.0 mi North - - N/A   Overcast
4:05 AM -0.4 °F -16.7 °F -4.0 °F 85% 30.24 in 10.0 mi South 10.4 mph - N/A   Overcast
4:25 AM -0.4 °F -16.7 °F -2.2 °F 92% 30.24 in 10.0 mi South 10.4 mph - N/A   Overcast
4:45 AM -0.4 °F -16.7 °F -0.4 °F 100% 30.23 in 10.0 mi South 10.4 mph - N/A   Overcast
5:05 AM 1.4 °F -16.1 °F -0.4 °F 92% 30.23 in 10.0 mi South 12.7 mph - N/A   Overcast
5:25 AM 1.4 °F -15.3 °F -0.4 °F 92% 30.23 in 10.0 mi SSE 11.5 mph - N/A   Overcast
5:45 AM 3.2 °F - 1.4 °F 92% 30.22 in 10.0 mi North - - N/A   Overcast
6:05 AM 3.2 °F -14.6 °F 1.4 °F 92% 30.21 in 10.0 mi South 13.8 mph - N/A   Overcast
6:25 AM 3.2 °F -14.6 °F 1.4 °F 92% 30.20 in 10.0 mi South 13.8 mph - N/A   Overcast
6:45 AM 5.0 °F -12.3 °F 3.2 °F 92% 30.18 in 10.0 mi South 13.8 mph 18.4 mph N/A   Overcast
7:05 AM 5.0 °F -12.3 °F 5.0 °F 100% 30.17 in 10.0 mi South 13.8 mph - N/A   Overcast
7:25 AM 6.8 °F -10.0 °F 5.0 °F 92% 30.16 in 10.0 mi South 13.8 mph - N/A   Overcast
7:45 AM 6.8 °F -11.3 °F 5.0 °F 92% 30.16 in 10.0 mi South 16.1 mph - N/A   Mostly Cloudy
8:05 AM 6.8 °F -10.7 °F 5.0 °F 92% 30.16 in 10.0 mi South 15.0 mph - N/A   Partly Cloudy
8:25 AM 6.8 °F -9.3 °F 6.8 °F 100% 30.16 in 10.0 mi South 12.7 mph - N/A   Mostly Cloudy
8:45 AM 8.6 °F -11.0 °F 6.8 °F 92% 30.15 in 10.0 mi South 20.7 mph - N/A   Overcast
9:05 AM 8.6 °F -11.0 °F 6.8 °F 92% 30.14 in 10.0 mi South 20.7 mph - N/A   Overcast
9:25 AM 8.6 °F -10.5 °F 8.6 °F 100% 30.13 in 10.0 mi South 19.6 mph - N/A   Overcast
9:45 AM 10.4 °F -9.1 °F 8.6 °F 92% 30.12 in 10.0 mi South 21.9 mph 28.8 mph N/A   Mostly Cloudy
10:05 AM 10.4 °F -9.1 °F 10.4 °F 100% 30.11 in 10.0 mi South 21.9 mph 27.6 mph N/A   Scattered Clouds
10:25 AM 10.4 °F -8.2 °F 10.4 °F 100% 30.10 in 10.0 mi South 19.6 mph 29.9 mph N/A   Mostly Cloudy
10:45 AM 12.2 °F -7.9 °F 10.4 °F 92% 30.10 in 10.0 mi South 25.3 mph 28.8 mph N/A   Overcast
11:05 AM 12.2 °F -6.7 °F 12.2 °F 100% 30.08 in 10.0 mi South 21.9 mph 27.6 mph N/A   Overcast
11:25 AM 14.0 °F -5.5 °F 14.0 °F 100% 30.07 in 10.0 mi South 25.3 mph - N/A   Mostly Cloudy
11:45 AM 14.0 °F -4.7 °F 14.0 °F 100% 30.05 in 10.0 mi South 23.0 mph 29.9 mph N/A   Mostly Cloudy
12:05 PM 15.8 °F -3.7 °F 15.8 °F 100% 30.03 in 10.0 mi South 27.6 mph 34.5 mph N/A   Overcast
12:25 PM 15.8 °F -2.3 °F 15.8 °F 100% 30.02 in 10.0 mi South 23.0 mph 34.5 mph N/A   Overcast
12:45 PM 15.8 °F -3.4 °F 15.8 °F 100% 30.01 in 8.0 mi South 26.5 mph 34.5 mph N/A   Overcast
1:05 PM 17.6 °F -1.0 °F 17.6 °F 100% 29.99 in 10.0 mi South 26.5 mph 31.1 mph N/A   Overcast
1:25 PM 17.6 °F -0.6 °F 17.6 °F 100% 29.98 in 10.0 mi South 25.3 mph 31.1 mph N/A   Overcast
1:45 PM 17.6 °F -1.3 °F 17.6 °F 100% 29.96 in 10.0 mi South 27.6 mph 33.4 mph N/A   Overcast
2:05 PM 19.4 °F 1.1 °F 19.4 °F 100% 29.94 in 10.0 mi South 27.6 mph 34.5 mph N/A   Overcast
2:25 PM 19.4 °F 0.5 °F 19.4 °F 100% 29.92 in 10.0 mi South 29.9 mph 35.7 mph N/A   Overcast
2:45 PM 19.4 °F 1.4 °F 19.4 °F 100% 29.92 in 5.0 mi SSW 26.5 mph 36.8 mph N/A   Overcast
3:05 PM 21.2 °F 3.5 °F 21.2 °F 100% 29.91 in 10.0 mi SSW 27.6 mph 32.2 mph N/A   Overcast
3:25 PM 21.2 °F 3.9 °F 21.2 °F 100% 29.91 in 10.0 mi SSW 26.5 mph 35.7 mph N/A   Overcast
3:45 PM 21.2 °F 3.9 °F 21.2 °F 100% 29.90 in 10.0 mi SSW 26.5 mph 32.2 mph N/A   Mostly Cloudy
4:05 PM 23.0 °F 6.9 °F 23.0 °F 100% 29.89 in 10.0 mi SSW 24.2 mph 32.2 mph N/A   Mostly Cloudy
4:25 PM 23.0 °F 6.0 °F 23.0 °F 100% 29.88 in 10.0 mi SSW 27.6 mph 33.4 mph N/A   Partly Cloudy
4:45 PM 23.0 °F 6.3 °F 23.0 °F 100% 29.87 in 10.0 mi South 26.5 mph 32.2 mph N/A   Clear
5:05 PM 23.0 °F 7.2 °F 23.0 °F 100% 29.87 in 10.0 mi SSW 23.0 mph 31.1 mph N/A   Scattered Clouds
5:25 PM 23.0 °F 8.3 °F 23.0 °F 100% 29.89 in 10.0 mi SSW 19.6 mph 27.6 mph N/A   Scattered Clouds
5:45 PM 23.0 °F 8.3 °F 23.0 °F 100% 29.88 in 10.0 mi SSW 19.6 mph - N/A   Partly Cloudy
6:05 PM 23.0 °F 7.6 °F 23.0 °F 100% 29.87 in 10.0 mi SSW 21.9 mph 27.6 mph N/A   Mostly Cloudy
6:25 PM 23.0 °F 8.3 °F 23.0 °F 100% 29.89 in 10.0 mi SSW 19.6 mph 23.0 mph N/A   Overcast
6:45 PM 23.0 °F 7.2 °F 23.0 °F 100% 29.88 in 10.0 mi South 23.0 mph 28.8 mph N/A   Overcast
7:05 PM 23.0 °F 6.9 °F 23.0 °F 100% 29.87 in 10.0 mi SSW 24.2 mph 28.8 mph N/A   Overcast
7:25 PM 21.2 °F 6.4 °F 21.2 °F 100% 29.88 in 10.0 mi SSW 18.4 mph 24.2 mph N/A   Overcast
7:45 PM 21.2 °F - 21.2 °F 100% 29.88 in 10.0 mi North - - N/A   Overcast
8:05 PM 21.2 °F 6.4 °F 21.2 °F 100% 29.88 in 10.0 mi SSW 18.4 mph 23.0 mph N/A   Overcast
8:25 PM 21.2 °F 6.4 °F 21.2 °F 100% 29.88 in 10.0 mi SSW 18.4 mph - N/A   Overcast
8:45 PM 19.4 °F 5.0 °F 19.4 °F 100% 29.88 in 10.0 mi SSW 16.1 mph - N/A   Overcast
9:05 PM 19.4 °F 4.1 °F 19.4 °F 100% 29.86 in 10.0 mi South 18.4 mph - N/A   Overcast
9:25 PM 19.4 °F 4.5 °F 19.4 °F 100% 29.86 in 10.0 mi South 17.3 mph 23.0 mph N/A   Mostly Cloudy
9:45 PM 19.4 °F 4.5 °F 19.4 °F 100% 29.87 in 10.0 mi SSW 17.3 mph - N/A   Clear
10:05 PM 19.4 °F 4.5 °F 19.4 °F 100% 29.87 in 10.0 mi SSW 17.3 mph - N/A   Clear
10:25 PM 19.4 °F 5.0 °F 19.4 °F 100% 29.87 in 10.0 mi SSW 16.1 mph - N/A   Scattered Clouds
10:45 PM 19.4 °F 6.6 °F 19.4 °F 100% 29.88 in 10.0 mi SSW 12.7 mph - N/A   Overcast
11:05 PM 21.2 °F 8.9 °F 21.2 °F 100% 29.89 in 10.0 mi SSW 12.7 mph - N/A   Overcast
11:25 PM 19.4 °F 7.2 °F 19.4 °F 100% 29.89 in 10.0 mi South 11.5 mph - N/A   Overcast
11:45 PM 19.4 °F 9.5 °F 19.4 °F 100% 29.89 in 10.0 mi South 8.1 mph - N/A   Overcast